Goodman, MO (64843)

7:54 PM CDT on September 30, 2014 (GMT -0500)
South east of Granby | Change Station
CLOSE
Current Station
Personal Weather Station
Location: Granby, MO
Elevation: 1217 ft
Nearby Weather Stations

Elev 1217 ft 36.89 °N, 94.23 °W | Updated 4 seconds ago

Clear
Clear
67.3 °F
Feels Like 67.3 °F
N
0.0
Wind Variable Wind from SSE
Gusts 0.0 mph

Today
High -- | Low -- °F
--% Chance of Precip.
Yesterday
High -- | Low -- °F
Precip. -- in
7:12 AM 7:02 PM
Waxing Crescent, 42% visible
Pressure 29.83 in
Visibility 10.0 miles
Clouds Clear
Dew Point 58 °F
Humidity 71%
Rainfall 0.00 in
Snow Depth Not available.
UV 0.0 out of 12
Pollen 5.20 out of 12
Air Quality Not available.
Flu Activity Not available.
METAR KGMJ 010035Z AUTO 15004KT 10SM CLR 23/17 A2983 RMK AO2

More Conditions Fewer Conditions

Pressure 29.83 in
Visibility 10.0 miles
Clouds Clear
Dew Point 58 °F
Humidity 71%
Rainfall 0.00 in
Snow Depth Not available.
UV 0.0 out of 12
Pollen 5.20 out of 12
Air Quality Not available.
Flu Activity Not available.
METAR KGMJ 010035Z AUTO 15004KT 10SM CLR 23/17 A2983 RMK AO2

More Conditions Fewer Conditions

10-Day Weather Forecast

Almanac

Astronomy

Sep. 30, 2014 Rise Set
Actual Time 7:12 AM CDT 7:02 PM CDT
Civil Twilight 6:46 AM CDT 7:28 PM CDT
Nautical Twilight 6:16 AM CDT 7:58 PM CDT
Astronomical Twilight 5:46 AM CDT 8:28 PM CDT
Moon 1:13 PM CDT (9/30) 11:40 PM CDT (9/30)
Length of Visible Light 12h 41m
Length of Day
11h 50m
Tomorrow will be 2m 19s shorter.
Waxing Crescent, 42% of the Moon is Illuminated
Today
Waxing Crescent
Oct 1
First Quarter
Oct 8
Full
Oct 15
Last Quarter
Oct 23
New

Today's Extremes

State Highs State Lows

Community

WunderPhotos

Upload Photos

1,757,801 photos uploaded!

Nearby

Snow Depth

Station Depth Elevation
No new snow has been reported.

Earthquake Activity

City Distance Mag. Time & Date
Parsons, Kansas 69 miles 3.0 7:33 PM CDT
2014-09-30
Minimum magnitude displayed is 2.5.

Coastal Water Temperatures

Place Temperature
No Stations Reporting

Nearby Weather Stations